sensor_id;sensor_type;location;lat;lon;timestamp;temperature;humidity
78516;SHT31;67815;51.990;5.688;2023-03-04T00:02:10;8.8;55.3
78516;SHT31;67815;51.990;5.688;2023-03-04T00:04:40;8.8;55.7
78516;SHT31;67815;51.990;5.688;2023-03-04T00:07:10;8.8;55.5
78516;SHT31;67815;51.990;5.688;2023-03-04T00:09:44;8.8;55.8
78516;SHT31;67815;51.990;5.688;2023-03-04T00:12:16;8.8;55.5
78516;SHT31;67815;51.990;5.688;2023-03-04T00:14:46;8.8;55.5
78516;SHT31;67815;51.990;5.688;2023-03-04T00:17:15;8.8;55.6
78516;SHT31;67815;51.990;5.688;2023-03-04T00:19:46;8.7;55.5
78516;SHT31;67815;51.990;5.688;2023-03-04T00:22:16;8.7;55.5
78516;SHT31;67815;51.990;5.688;2023-03-04T00:24:45;8.7;55.6
78516;SHT31;67815;51.990;5.688;2023-03-04T00:27:15;8.7;55.8
78516;SHT31;67815;51.990;5.688;2023-03-04T00:29:44;8.7;56.1
78516;SHT31;67815;51.990;5.688;2023-03-04T00:32:14;8.7;56.1
78516;SHT31;67815;51.990;5.688;2023-03-04T00:34:44;8.7;56.4
78516;SHT31;67815;51.990;5.688;2023-03-04T00:37:14;8.7;56.6
78516;SHT31;67815;51.990;5.688;2023-03-04T00:39:44;8.7;56.6
78516;SHT31;67815;51.990;5.688;2023-03-04T00:42:13;8.7;56.7
78516;SHT31;67815;51.990;5.688;2023-03-04T00:44:43;8.7;56.7
78516;SHT31;67815;51.990;5.688;2023-03-04T00:47:12;8.7;56.5
78516;SHT31;67815;51.990;5.688;2023-03-04T00:49:42;8.7;56.5
78516;SHT31;67815;51.990;5.688;2023-03-04T00:52:12;8.7;56.5
78516;SHT31;67815;51.990;5.688;2023-03-04T00:54:41;8.7;56.6
78516;SHT31;67815;51.990;5.688;2023-03-04T00:57:11;8.8;56.7
78516;SHT31;67815;51.990;5.688;2023-03-04T00:59:40;8.8;57.0
78516;SHT31;67815;51.990;5.688;2023-03-04T01:02:11;8.8;56.7
78516;SHT31;67815;51.990;5.688;2023-03-04T01:04:40;8.8;56.7
78516;SHT31;67815;51.990;5.688;2023-03-04T01:07:10;8.8;56.9
78516;SHT31;67815;51.990;5.688;2023-03-04T01:09:40;8.8;56.8
78516;SHT31;67815;51.990;5.688;2023-03-04T01:12:11;8.8;57.0
78516;SHT31;67815;51.990;5.688;2023-03-04T01:14:40;8.8;57.0
78516;SHT31;67815;51.990;5.688;2023-03-04T01:17:10;8.8;56.8
78516;SHT31;67815;51.990;5.688;2023-03-04T01:19:39;8.8;57.0
78516;SHT31;67815;51.990;5.688;2023-03-04T01:22:10;8.8;56.5
78516;SHT31;67815;51.990;5.688;2023-03-04T01:24:41;8.8;56.8
78516;SHT31;67815;51.990;5.688;2023-03-04T01:27:11;8.8;57.2
78516;SHT31;67815;51.990;5.688;2023-03-04T01:29:41;8.8;56.9
78516;SHT31;67815;51.990;5.688;2023-03-04T01:32:11;8.8;57.0
78516;SHT31;67815;51.990;5.688;2023-03-04T01:34:41;8.8;57.0
78516;SHT31;67815;51.990;5.688;2023-03-04T01:37:11;8.8;57.0
78516;SHT31;67815;51.990;5.688;2023-03-04T01:39:43;8.7;57.0
78516;SHT31;67815;51.990;5.688;2023-03-04T01:42:17;8.7;57.1
78516;SHT31;67815;51.990;5.688;2023-03-04T01:44:50;8.7;57.1
78516;SHT31;67815;51.990;5.688;2023-03-04T01:47:27;8.7;57.1
78516;SHT31;67815;51.990;5.688;2023-03-04T01:50:01;8.7;57.3
78516;SHT31;67815;51.990;5.688;2023-03-04T01:52:32;8.7;57.0
78516;SHT31;67815;51.990;5.688;2023-03-04T01:55:05;8.6;56.8
78516;SHT31;67815;51.990;5.688;2023-03-04T01:57:35;8.6;56.5
78516;SHT31;67815;51.990;5.688;2023-03-04T02:00:26;8.6;56.0
78516;SHT31;67815;51.990;5.688;2023-03-04T02:03:01;8.6;56.3
78516;SHT31;67815;51.990;5.688;2023-03-04T02:05:35;8.6;56.5
78516;SHT31;67815;51.990;5.688;2023-03-04T02:08:08;8.5;56.6
78516;SHT31;67815;51.990;5.688;2023-03-04T02:10:39;8.5;56.7
78516;SHT31;67815;51.990;5.688;2023-03-04T02:13:11;8.5;56.9
78516;SHT31;67815;51.990;5.688;2023-03-04T02:15:44;8.5;57.0
78516;SHT31;67815;51.990;5.688;2023-03-04T02:18:17;8.5;57.3
78516;SHT31;67815;51.990;5.688;2023-03-04T02:20:55;8.5;57.4
78516;SHT31;67815;51.990;5.688;2023-03-04T02:23:34;8.6;57.3
78516;SHT31;67815;51.990;5.688;2023-03-04T02:26:14;8.6;57.2
78516;SHT31;67815;51.990;5.688;2023-03-04T02:28:47;8.6;56.6
78516;SHT31;67815;51.990;5.688;2023-03-04T02:31:23;8.6;56.6
78516;SHT31;67815;51.990;5.688;2023-03-04T02:33:56;8.6;56.8
78516;SHT31;67815;51.990;5.688;2023-03-04T02:36:28;8.6;56.9
78516;SHT31;67815;51.990;5.688;2023-03-04T02:39:04;8.6;56.7
78516;SHT31;67815;51.990;5.688;2023-03-04T02:41:36;8.6;56.9
78516;SHT31;67815;51.990;5.688;2023-03-04T02:44:15;8.6;56.9
78516;SHT31;67815;51.990;5.688;2023-03-04T02:46:46;8.6;57.0
78516;SHT31;67815;51.990;5.688;2023-03-04T02:49:18;8.6;57.0
78516;SHT31;67815;51.990;5.688;2023-03-04T02:51:50;8.6;56.9
78516;SHT31;67815;51.990;5.688;2023-03-04T02:54:22;8.6;57.1
78516;SHT31;67815;51.990;5.688;2023-03-04T02:56:55;8.6;56.5
78516;SHT31;67815;51.990;5.688;2023-03-04T02:59:25;8.7;56.6
78516;SHT31;67815;51.990;5.688;2023-03-04T03:01:56;8.7;56.6
78516;SHT31;67815;51.990;5.688;2023-03-04T03:04:26;8.7;56.6
78516;SHT31;67815;51.990;5.688;2023-03-04T03:06:56;8.7;56.5
78516;SHT31;67815;51.990;5.688;2023-03-04T03:09:28;8.6;56.9
78516;SHT31;67815;51.990;5.688;2023-03-04T03:11:57;8.6;56.6
78516;SHT31;67815;51.990;5.688;2023-03-04T03:14:27;8.7;57.2
78516;SHT31;67815;51.990;5.688;2023-03-04T03:16:56;8.7;56.9
78516;SHT31;67815;51.990;5.688;2023-03-04T03:19:26;8.7;56.9
78516;SHT31;67815;51.990;5.688;2023-03-04T03:21:56;8.7;56.8
78516;SHT31;67815;51.990;5.688;2023-03-04T03:24:25;8.7;56.8
78516;SHT31;67815;51.990;5.688;2023-03-04T03:26:55;8.7;56.9
78516;SHT31;67815;51.990;5.688;2023-03-04T03:29:24;8.7;56.9
78516;SHT31;67815;51.990;5.688;2023-03-04T03:31:54;8.7;56.6
78516;SHT31;67815;51.990;5.688;2023-03-04T03:34:24;8.8;56.6
78516;SHT31;67815;51.990;5.688;2023-03-04T03:36:54;8.8;56.6
78516;SHT31;67815;51.990;5.688;2023-03-04T03:39:24;8.8;56.9
78516;SHT31;67815;51.990;5.688;2023-03-04T03:41:54;8.7;56.9
78516;SHT31;67815;51.990;5.688;2023-03-04T03:44:23;8.7;57.0
78516;SHT31;67815;51.990;5.688;2023-03-04T03:46:53;8.7;57.0
78516;SHT31;67815;51.990;5.688;2023-03-04T03:49:23;8.7;57.0
78516;SHT31;67815;51.990;5.688;2023-03-04T03:51:53;8.7;56.9
78516;SHT31;67815;51.990;5.688;2023-03-04T03:54:25;8.7;56.9
78516;SHT31;67815;51.990;5.688;2023-03-04T03:56:55;8.7;57.0
78516;SHT31;67815;51.990;5.688;2023-03-04T03:59:24;8.7;57.3
78516;SHT31;67815;51.990;5.688;2023-03-04T04:01:54;8.7;57.0
78516;SHT31;67815;51.990;5.688;2023-03-04T04:04:24;8.6;56.1
78516;SHT31;67815;51.990;5.688;2023-03-04T04:06:54;8.6;56.0
78516;SHT31;67815;51.990;5.688;2023-03-04T04:09:23;8.6;56.2
78516;SHT31;67815;51.990;5.688;2023-03-04T04:11:53;8.6;56.3
78516;SHT31;67815;51.990;5.688;2023-03-04T04:14:24;8.6;56.2
78516;SHT31;67815;51.990;5.688;2023-03-04T04:16:54;8.6;56.5
78516;SHT31;67815;51.990;5.688;2023-03-04T04:19:23;8.6;56.7
78516;SHT31;67815;51.990;5.688;2023-03-04T04:21:53;8.6;56.7
78516;SHT31;67815;51.990;5.688;2023-03-04T04:24:24;8.6;56.8
78516;SHT31;67815;51.990;5.688;2023-03-04T04:26:54;8.6;57.2
78516;SHT31;67815;51.990;5.688;2023-03-04T04:29:24;8.6;56.9
78516;SHT31;67815;51.990;5.688;2023-03-04T04:31:54;8.6;56.7
78516;SHT31;67815;51.990;5.688;2023-03-04T04:34:24;8.6;57.2
78516;SHT31;67815;51.990;5.688;2023-03-04T04:36:54;8.6;57.2
78516;SHT31;67815;51.990;5.688;2023-03-04T04:39:24;8.6;57.6
78516;SHT31;67815;51.990;5.688;2023-03-04T04:41:54;8.6;57.6
78516;SHT31;67815;51.990;5.688;2023-03-04T04:44:23;8.6;57.5
78516;SHT31;67815;51.990;5.688;2023-03-04T04:46:53;8.6;57.5
78516;SHT31;67815;51.990;5.688;2023-03-04T04:49:23;8.6;57.3
78516;SHT31;67815;51.990;5.688;2023-03-04T04:51:54;8.6;57.6
78516;SHT31;67815;51.990;5.688;2023-03-04T04:54:24;8.6;57.6
78516;SHT31;67815;51.990;5.688;2023-03-04T04:56:54;8.6;57.4
78516;SHT31;67815;51.990;5.688;2023-03-04T04:59:24;8.6;57.9
78516;SHT31;67815;51.990;5.688;2023-03-04T05:01:53;8.6;57.9
78516;SHT31;67815;51.990;5.688;2023-03-04T05:04:23;8.6;57.8
78516;SHT31;67815;51.990;5.688;2023-03-04T05:06:53;8.6;58.0
78516;SHT31;67815;51.990;5.688;2023-03-04T05:09:23;8.6;57.8
78516;SHT31;67815;51.990;5.688;2023-03-04T05:11:52;8.6;57.8
78516;SHT31;67815;51.990;5.688;2023-03-04T05:14:23;8.6;57.8
78516;SHT31;67815;51.990;5.688;2023-03-04T05:16:53;8.6;57.6
78516;SHT31;67815;51.990;5.688;2023-03-04T05:19:25;8.6;57.4
78516;SHT31;67815;51.990;5.688;2023-03-04T05:21:55;8.6;57.5
78516;SHT31;67815;51.990;5.688;2023-03-04T05:24:24;8.6;57.3
78516;SHT31;67815;51.990;5.688;2023-03-04T05:26:54;8.6;56.9
78516;SHT31;67815;51.990;5.688;2023-03-04T05:29:24;8.6;56.8
78516;SHT31;67815;51.990;5.688;2023-03-04T05:31:53;8.6;56.7
78516;SHT31;67815;51.990;5.688;2023-03-04T05:34:24;8.6;56.9
78516;SHT31;67815;51.990;5.688;2023-03-04T05:36:53;8.6;56.8
78516;SHT31;67815;51.990;5.688;2023-03-04T05:39:23;8.6;56.6
78516;SHT31;67815;51.990;5.688;2023-03-04T05:41:52;8.6;56.7
78516;SHT31;67815;51.990;5.688;2023-03-04T05:44:22;8.5;56.9
78516;SHT31;67815;51.990;5.688;2023-03-04T05:46:51;8.5;57.6
78516;SHT31;67815;51.990;5.688;2023-03-04T05:49:21;8.5;57.3
78516;SHT31;67815;51.990;5.688;2023-03-04T05:51:51;8.5;57.1
78516;SHT31;67815;51.990;5.688;2023-03-04T05:54:20;8.5;57.3
78516;SHT31;67815;51.990;5.688;2023-03-04T05:56:50;8.5;57.5
78516;SHT31;67815;51.990;5.688;2023-03-04T05:59:21;8.5;57.3
78516;SHT31;67815;51.990;5.688;2023-03-04T06:01:50;8.5;57.5
78516;SHT31;67815;51.990;5.688;2023-03-04T06:04:20;8.5;57.8
78516;SHT31;67815;51.990;5.688;2023-03-04T06:06:49;8.5;57.8
78516;SHT31;67815;51.990;5.688;2023-03-04T06:09:19;8.5;58.3
78516;SHT31;67815;51.990;5.688;2023-03-04T06:11:49;8.6;58.3
78516;SHT31;67815;51.990;5.688;2023-03-04T06:14:19;8.6;58.4
78516;SHT31;67815;51.990;5.688;2023-03-04T06:16:51;8.6;59.0
78516;SHT31;67815;51.990;5.688;2023-03-04T06:19:21;8.6;58.8
78516;SHT31;67815;51.990;5.688;2023-03-04T06:21:51;8.6;59.0
78516;SHT31;67815;51.990;5.688;2023-03-04T06:24:21;8.6;59.0
78516;SHT31;67815;51.990;5.688;2023-03-04T06:26:51;8.6;59.0
78516;SHT31;67815;51.990;5.688;2023-03-04T06:29:21;8.6;59.0
78516;SHT31;67815;51.990;5.688;2023-03-04T06:31:51;8.6;59.2
78516;SHT31;67815;51.990;5.688;2023-03-04T06:34:21;8.6;59.5
78516;SHT31;67815;51.990;5.688;2023-03-04T06:36:50;8.6;59.6
78516;SHT31;67815;51.990;5.688;2023-03-04T06:39:20;8.6;59.6
78516;SHT31;67815;51.990;5.688;2023-03-04T06:41:50;8.6;59.8
78516;SHT31;67815;51.990;5.688;2023-03-04T06:44:20;8.6;59.6
78516;SHT31;67815;51.990;5.688;2023-03-04T06:46:50;8.7;59.4
78516;SHT31;67815;51.990;5.688;2023-03-04T06:49:21;8.7;59.3
78516;SHT31;67815;51.990;5.688;2023-03-04T06:51:51;8.7;59.8
78516;SHT31;67815;51.990;5.688;2023-03-04T06:54:21;8.7;59.5
78516;SHT31;67815;51.990;5.688;2023-03-04T06:56:52;8.7;60.0
78516;SHT31;67815;51.990;5.688;2023-03-04T06:59:22;8.7;60.1
78516;SHT31;67815;51.990;5.688;2023-03-04T07:01:52;8.7;60.2
78516;SHT31;67815;51.990;5.688;2023-03-04T07:04:22;8.7;60.0
78516;SHT31;67815;51.990;5.688;2023-03-04T07:06:52;8.8;60.1
78516;SHT31;67815;51.990;5.688;2023-03-04T07:09:22;8.8;60.1
78516;SHT31;67815;51.990;5.688;2023-03-04T07:11:51;8.8;60.2
78516;SHT31;67815;51.990;5.688;2023-03-04T07:14:21;8.8;60.1
78516;SHT31;67815;51.990;5.688;2023-03-04T07:16:52;8.8;60.3
78516;SHT31;67815;51.990;5.688;2023-03-04T07:19:22;8.8;60.7
78516;SHT31;67815;51.990;5.688;2023-03-04T07:21:53;8.8;61.5
78516;SHT31;67815;51.990;5.688;2023-03-04T07:24:23;8.8;62.5
78516;SHT31;67815;51.990;5.688;2023-03-04T07:26:52;8.8;63.4
78516;SHT31;67815;51.990;5.688;2023-03-04T07:29:22;8.8;64.0
78516;SHT31;67815;51.990;5.688;2023-03-04T07:31:51;8.7;64.4
78516;SHT31;67815;51.990;5.688;2023-03-04T07:34:24;8.7;64.7
78516;SHT31;67815;51.990;5.688;2023-03-04T07:36:55;8.7;64.7
78516;SHT31;67815;51.990;5.688;2023-03-04T07:39:25;8.7;65.3
78516;SHT31;67815;51.990;5.688;2023-03-04T07:41:54;8.7;66.1
78516;SHT31;67815;51.990;5.688;2023-03-04T07:44:24;8.7;66.2
78516;SHT31;67815;51.990;5.688;2023-03-04T07:46:53;8.7;65.8
78516;SHT31;67815;51.990;5.688;2023-03-04T07:49:23;8.7;65.4
78516;SHT31;67815;51.990;5.688;2023-03-04T07:51:53;8.7;65.5
78516;SHT31;67815;51.990;5.688;2023-03-04T07:54:22;8.7;65.9
78516;SHT31;67815;51.990;5.688;2023-03-04T07:56:52;8.7;65.6
78516;SHT31;67815;51.990;5.688;2023-03-04T07:59:22;8.8;66.3
78516;SHT31;67815;51.990;5.688;2023-03-04T08:01:51;8.8;66.0
78516;SHT31;67815;51.990;5.688;2023-03-04T08:04:23;8.8;65.6
78516;SHT31;67815;51.990;5.688;2023-03-04T08:06:53;8.8;65.6
78516;SHT31;67815;51.990;5.688;2023-03-04T08:09:23;8.8;65.7
78516;SHT31;67815;51.990;5.688;2023-03-04T08:11:52;8.8;65.3
78516;SHT31;67815;51.990;5.688;2023-03-04T08:14:22;8.8;66.0
78516;SHT31;67815;51.990;5.688;2023-03-04T08:16:52;8.8;65.2
78516;SHT31;67815;51.990;5.688;2023-03-04T08:19:21;8.8;65.4
78516;SHT31;67815;51.990;5.688;2023-03-04T08:21:51;8.9;66.1
78516;SHT31;67815;51.990;5.688;2023-03-04T08:24:22;8.9;65.8
78516;SHT31;67815;51.990;5.688;2023-03-04T08:26:52;8.9;65.4
78516;SHT31;67815;51.990;5.688;2023-03-04T08:29:23;8.9;65.7
78516;SHT31;67815;51.990;5.688;2023-03-04T08:31:54;8.9;65.4
78516;SHT31;67815;51.990;5.688;2023-03-04T08:34:26;9.0;65.6
78516;SHT31;67815;51.990;5.688;2023-03-04T08:36:56;9.0;65.4
78516;SHT31;67815;51.990;5.688;2023-03-04T08:39:26;9.0;64.9
78516;SHT31;67815;51.990;5.688;2023-03-04T08:41:56;9.1;64.8
78516;SHT31;67815;51.990;5.688;2023-03-04T08:44:26;9.1;64.6
78516;SHT31;67815;51.990;5.688;2023-03-04T08:46:56;9.1;64.7
78516;SHT31;67815;51.990;5.688;2023-03-04T08:49:25;9.1;64.4
78516;SHT31;67815;51.990;5.688;2023-03-04T08:51:55;9.1;64.4
78516;SHT31;67815;51.990;5.688;2023-03-04T08:54:25;9.2;64.5
78516;SHT31;67815;51.990;5.688;2023-03-04T08:56:55;9.2;64.4
78516;SHT31;67815;51.990;5.688;2023-03-04T08:59:25;9.2;64.2
78516;SHT31;67815;51.990;5.688;2023-03-04T09:01:55;9.2;64.2
78516;SHT31;67815;51.990;5.688;2023-03-04T09:04:24;9.2;64.2
78516;SHT31;67815;51.990;5.688;2023-03-04T09:06:54;9.2;64.4
78516;SHT31;67815;51.990;5.688;2023-03-04T09:09:24;9.2;64.3
78516;SHT31;67815;51.990;5.688;2023-03-04T09:11:53;9.2;64.6
78516;SHT31;67815;51.990;5.688;2023-03-04T09:14:23;9.3;65.0
78516;SHT31;67815;51.990;5.688;2023-03-04T09:16:53;9.3;64.9
78516;SHT31;67815;51.990;5.688;2023-03-04T09:19:22;9.3;65.7
78516;SHT31;67815;51.990;5.688;2023-03-04T09:21:54;9.3;65.5
78516;SHT31;67815;51.990;5.688;2023-03-04T09:24:25;9.3;66.1
78516;SHT31;67815;51.990;5.688;2023-03-04T09:26:55;9.3;66.3
78516;SHT31;67815;51.990;5.688;2023-03-04T09:29:25;9.3;66.3
78516;SHT31;67815;51.990;5.688;2023-03-04T09:31:54;9.3;66.3
78516;SHT31;67815;51.990;5.688;2023-03-04T09:34:24;9.3;66.7
78516;SHT31;67815;51.990;5.688;2023-03-04T09:36:53;9.3;67.6
78516;SHT31;67815;51.990;5.688;2023-03-04T09:39:23;9.3;68.1
78516;SHT31;67815;51.990;5.688;2023-03-04T09:41:57;9.3;68.5
78516;SHT31;67815;51.990;5.688;2023-03-04T09:44:29;9.3;69.3
78516;SHT31;67815;51.990;5.688;2023-03-04T09:47:03;9.3;69.9
78516;SHT31;67815;51.990;5.688;2023-03-04T09:49:38;9.3;69.0
78516;SHT31;67815;51.990;5.688;2023-03-04T09:52:21;9.3;68.8
78516;SHT31;67815;51.990;5.688;2023-03-04T09:55:05;9.3;68.9
78516;SHT31;67815;51.990;5.688;2023-03-04T09:57:47;9.3;69.8
78516;SHT31;67815;51.990;5.688;2023-03-04T10:00:22;9.3;69.8
78516;SHT31;67815;51.990;5.688;2023-03-04T10:03:04;9.3;70.3
78516;SHT31;67815;51.990;5.688;2023-03-04T10:05:40;9.3;71.2
78516;SHT31;67815;51.990;5.688;2023-03-04T10:08:33;9.3;70.5
78516;SHT31;67815;51.990;5.688;2023-03-04T10:11:12;9.3;71.0
78516;SHT31;67815;51.990;5.688;2023-03-04T10:13:52;9.4;70.1
78516;SHT31;67815;51.990;5.688;2023-03-04T10:16:28;9.4;69.0
78516;SHT31;67815;51.990;5.688;2023-03-04T10:19:19;9.4;69.8
78516;SHT31;67815;51.990;5.688;2023-03-04T10:21:49;9.4;69.8
78516;SHT31;67815;51.990;5.688;2023-03-04T10:24:25;9.4;67.7
78516;SHT31;67815;51.990;5.688;2023-03-04T10:27:00;9.5;68.4
78516;SHT31;67815;51.990;5.688;2023-03-04T10:29:32;9.5;68.2
78516;SHT31;67815;51.990;5.688;2023-03-04T10:32:02;9.5;68.5
78516;SHT31;67815;51.990;5.688;2023-03-04T10:34:32;9.5;68.8
78516;SHT31;67815;51.990;5.688;2023-03-04T10:37:05;9.5;68.0
78516;SHT31;67815;51.990;5.688;2023-03-04T10:39:38;9.5;68.4
78516;SHT31;67815;51.990;5.688;2023-03-04T10:42:25;9.5;69.0
78516;SHT31;67815;51.990;5.688;2023-03-04T10:44:58;9.5;69.2
78516;SHT31;67815;51.990;5.688;2023-03-04T10:47:30;9.5;68.9
78516;SHT31;67815;51.990;5.688;2023-03-04T10:50:04;9.5;68.5
78516;SHT31;67815;51.990;5.688;2023-03-04T10:52:40;9.5;68.9
78516;SHT31;67815;51.990;5.688;2023-03-04T10:55:17;9.5;68.9
78516;SHT31;67815;51.990;5.688;2023-03-04T10:57:52;9.5;69.1
78516;SHT31;67815;51.990;5.688;2023-03-04T11:00:28;9.5;69.1
78516;SHT31;67815;51.990;5.688;2023-03-04T11:03:24;9.5;68.2
78516;SHT31;67815;51.990;5.688;2023-03-04T11:06:05;9.6;69.2
78516;SHT31;67815;51.990;5.688;2023-03-04T11:08:35;9.6;68.9
78516;SHT31;67815;51.990;5.688;2023-03-04T11:11:23;9.6;68.1
78516;SHT31;67815;51.990;5.688;2023-03-04T11:13:57;9.7;68.5
78516;SHT31;67815;51.990;5.688;2023-03-04T11:16:30;9.7;68.8
78516;SHT31;67815;51.990;5.688;2023-03-04T11:19:05;9.7;68.2
78516;SHT31;67815;51.990;5.688;2023-03-04T11:21:42;9.8;68.2
78516;SHT31;67815;51.990;5.688;2023-03-04T11:24:19;9.8;66.2
78516;SHT31;67815;51.990;5.688;2023-03-04T11:26:55;9.8;66.3
78516;SHT31;67815;51.990;5.688;2023-03-04T11:29:30;9.9;66.1
78516;SHT31;67815;51.990;5.688;2023-03-04T11:32:06;9.9;65.6
78516;SHT31;67815;51.990;5.688;2023-03-04T11:34:45;9.9;64.8
78516;SHT31;67815;51.990;5.688;2023-03-04T11:37:23;10.0;65.6
78516;SHT31;67815;51.990;5.688;2023-03-04T11:40:00;10.0;65.1
78516;SHT31;67815;51.990;5.688;2023-03-04T11:42:40;10.1;63.4
78516;SHT31;67815;51.990;5.688;2023-03-04T11:45:14;10.1;63.6
78516;SHT31;67815;51.990;5.688;2023-03-04T11:47:55;10.1;64.0
78516;SHT31;67815;51.990;5.688;2023-03-04T11:50:34;10.1;64.8
78516;SHT31;67815;51.990;5.688;2023-03-04T11:53:19;10.2;65.1
78516;SHT31;67815;51.990;5.688;2023-03-04T11:56:44;10.2;66.6
78516;SHT31;67815;51.990;5.688;2023-03-04T11:59:54;10.1;66.6
78516;SHT31;67815;51.990;5.688;2023-03-04T12:02:33;10.1;67.4
78516;SHT31;67815;51.990;5.688;2023-03-04T12:05:18;10.1;67.5
78516;SHT31;67815;51.990;5.688;2023-03-04T12:08:00;10.1;67.9
78516;SHT31;67815;51.990;5.688;2023-03-04T12:10:35;10.0;67.0
78516;SHT31;67815;51.990;5.688;2023-03-04T12:13:33;10.0;66.9
78516;SHT31;67815;51.990;5.688;2023-03-04T12:16:13;10.0;67.3
78516;SHT31;67815;51.990;5.688;2023-03-04T12:19:02;10.0;67.2
78516;SHT31;67815;51.990;5.688;2023-03-04T12:21:53;10.1;67.7
78516;SHT31;67815;51.990;5.688;2023-03-04T12:24:35;10.1;67.8
78516;SHT31;67815;51.990;5.688;2023-03-04T12:27:19;10.1;65.8
78516;SHT31;67815;51.990;5.688;2023-03-04T12:29:56;10.2;66.5
78516;SHT31;67815;51.990;5.688;2023-03-04T12:32:38;10.2;66.3
78516;SHT31;67815;51.990;5.688;2023-03-04T12:35:29;10.3;65.7
78516;SHT31;67815;51.990;5.688;2023-03-04T12:38:14;10.3;65.7
78516;SHT31;67815;51.990;5.688;2023-03-04T12:40:54;10.4;64.6
78516;SHT31;67815;51.990;5.688;2023-03-04T12:43:35;10.4;64.0
78516;SHT31;67815;51.990;5.688;2023-03-04T12:46:14;10.4;62.9
78516;SHT31;67815;51.990;5.688;2023-03-04T12:48:59;10.4;62.2
78516;SHT31;67815;51.990;5.688;2023-03-04T12:51:38;10.4;62.9
78516;SHT31;67815;51.990;5.688;2023-03-04T12:54:22;10.4;62.0
78516;SHT31;67815;51.990;5.688;2023-03-04T12:56:59;10.4;61.9
78516;SHT31;67815;51.990;5.688;2023-03-04T12:59:35;10.4;61.0
78516;SHT31;67815;51.990;5.688;2023-03-04T13:02:28;10.4;60.8
78516;SHT31;67815;51.990;5.688;2023-03-04T13:05:07;10.4;59.5
78516;SHT31;67815;51.990;5.688;2023-03-04T13:07:47;10.4;60.0
78516;SHT31;67815;51.990;5.688;2023-03-04T13:10:21;10.4;60.1
78516;SHT31;67815;51.990;5.688;2023-03-04T13:12:53;10.4;59.2
78516;SHT31;67815;51.990;5.688;2023-03-04T13:15:37;10.4;58.2
78516;SHT31;67815;51.990;5.688;2023-03-04T13:18:32;10.4;57.2
78516;SHT31;67815;51.990;5.688;2023-03-04T13:21:19;10.4;56.4
78516;SHT31;67815;51.990;5.688;2023-03-04T13:23:52;10.4;56.7
78516;SHT31;67815;51.990;5.688;2023-03-04T13:26:27;10.4;57.6
78516;SHT31;67815;51.990;5.688;2023-03-04T13:30:42;10.5;57.5
78516;SHT31;67815;51.990;5.688;2023-03-04T13:34:42;10.5;57.7
78516;SHT31;67815;51.990;5.688;2023-03-04T13:37:27;10.6;55.3
78516;SHT31;67815;51.990;5.688;2023-03-04T13:40:34;10.6;55.3
78516;SHT31;67815;51.990;5.688;2023-03-04T13:43:32;10.6;55.2
78516;SHT31;67815;51.990;5.688;2023-03-04T13:46:40;10.6;55.8
78516;SHT31;67815;51.990;5.688;2023-03-04T13:49:21;10.5;56.5
78516;SHT31;67815;51.990;5.688;2023-03-04T13:51:52;10.5;55.4
78516;SHT31;67815;51.990;5.688;2023-03-04T13:54:25;10.5;56.5
78516;SHT31;67815;51.990;5.688;2023-03-04T13:57:17;10.5;56.7
78516;SHT31;67815;51.990;5.688;2023-03-04T13:59:50;10.5;56.3
78516;SHT31;67815;51.990;5.688;2023-03-04T14:02:24;10.5;56.9
78516;SHT31;67815;51.990;5.688;2023-03-04T14:04:59;10.5;57.1
78516;SHT31;67815;51.990;5.688;2023-03-04T14:07:32;10.5;57.5
78516;SHT31;67815;51.990;5.688;2023-03-04T14:10:06;10.5;56.8
78516;SHT31;67815;51.990;5.688;2023-03-04T14:12:40;10.5;56.8
78516;SHT31;67815;51.990;5.688;2023-03-04T14:15:21;10.4;57.6
78516;SHT31;67815;51.990;5.688;2023-03-04T14:17:53;10.4;57.5
78516;SHT31;67815;51.990;5.688;2023-03-04T14:20:27;10.3;57.5
78516;SHT31;67815;51.990;5.688;2023-03-04T14:22:59;10.3;57.5
78516;SHT31;67815;51.990;5.688;2023-03-04T14:25:30;10.3;57.2
78516;SHT31;67815;51.990;5.688;2023-03-04T14:28:09;10.2;58.1
78516;SHT31;67815;51.990;5.688;2023-03-04T14:30:41;10.2;57.7
78516;SHT31;67815;51.990;5.688;2023-03-04T14:33:20;10.2;57.6
78516;SHT31;67815;51.990;5.688;2023-03-04T14:35:52;10.2;55.8
78516;SHT31;67815;51.990;5.688;2023-03-04T14:38:27;10.2;55.2
78516;SHT31;67815;51.990;5.688;2023-03-04T14:41:03;10.2;54.5
78516;SHT31;67815;51.990;5.688;2023-03-04T14:43:39;10.2;54.7
78516;SHT31;67815;51.990;5.688;2023-03-04T14:46:15;10.2;54.5
78516;SHT31;67815;51.990;5.688;2023-03-04T14:48:49;10.2;54.2
78516;SHT31;67815;51.990;5.688;2023-03-04T14:51:31;10.2;52.1
78516;SHT31;67815;51.990;5.688;2023-03-04T14:54:02;10.2;51.3
78516;SHT31;67815;51.990;5.688;2023-03-04T14:56:34;10.2;51.3
78516;SHT31;67815;51.990;5.688;2023-03-04T14:59:10;10.2;50.3
78516;SHT31;67815;51.990;5.688;2023-03-04T15:01:41;10.2;50.9
78516;SHT31;67815;51.990;5.688;2023-03-04T15:04:19;10.2;51.3
78516;SHT31;67815;51.990;5.688;2023-03-04T15:06:52;10.2;50.0
78516;SHT31;67815;51.990;5.688;2023-03-04T15:09:24;10.2;51.4
78516;SHT31;67815;51.990;5.688;2023-03-04T15:11:59;10.2;51.2
78516;SHT31;67815;51.990;5.688;2023-03-04T15:14:47;10.2;51.3
78516;SHT31;67815;51.990;5.688;2023-03-04T15:17:30;10.2;51.0
78516;SHT31;67815;51.990;5.688;2023-03-04T15:20:18;10.2;51.0
78516;SHT31;67815;51.990;5.688;2023-03-04T15:23:03;10.2;50.9
78516;SHT31;67815;51.990;5.688;2023-03-04T15:25:36;10.2;50.6
78516;SHT31;67815;51.990;5.688;2023-03-04T15:28:16;10.2;51.0
78516;SHT31;67815;51.990;5.688;2023-03-04T15:30:47;10.2;50.5
78516;SHT31;67815;51.990;5.688;2023-03-04T15:33:18;10.2;50.7
78516;SHT31;67815;51.990;5.688;2023-03-04T15:35:52;10.2;51.2
78516;SHT31;67815;51.990;5.688;2023-03-04T15:38:23;10.2;52.4
78516;SHT31;67815;51.990;5.688;2023-03-04T15:40:54;10.2;53.3
78516;SHT31;67815;51.990;5.688;2023-03-04T15:43:26;10.2;54.0
78516;SHT31;67815;51.990;5.688;2023-03-04T15:45:55;10.1;54.4
78516;SHT31;67815;51.990;5.688;2023-03-04T15:48:25;10.1;55.0
78516;SHT31;67815;51.990;5.688;2023-03-04T15:50:57;10.1;53.8
78516;SHT31;67815;51.990;5.688;2023-03-04T15:53:32;10.1;53.5
78516;SHT31;67815;51.990;5.688;2023-03-04T15:56:06;10.0;52.6
78516;SHT31;67815;51.990;5.688;2023-03-04T15:58:38;10.0;53.0
78516;SHT31;67815;51.990;5.688;2023-03-04T16:01:14;10.0;53.1
78516;SHT31;67815;51.990;5.688;2023-03-04T16:03:45;10.0;52.7
78516;SHT31;67815;51.990;5.688;2023-03-04T16:06:16;10.0;53.0
78516;SHT31;67815;51.990;5.688;2023-03-04T16:08:49;9.9;53.3
78516;SHT31;67815;51.990;5.688;2023-03-04T16:11:21;9.9;53.9
78516;SHT31;67815;51.990;5.688;2023-03-04T16:13:52;9.9;54.2
78516;SHT31;67815;51.990;5.688;2023-03-04T16:16:21;9.9;52.5
78516;SHT31;67815;51.990;5.688;2023-03-04T16:18:53;9.9;53.5
78516;SHT31;67815;51.990;5.688;2023-03-04T16:21:22;9.9;52.5
78516;SHT31;67815;51.990;5.688;2023-03-04T16:23:53;9.9;52.1
78516;SHT31;67815;51.990;5.688;2023-03-04T16:26:24;9.9;52.0
78516;SHT31;67815;51.990;5.688;2023-03-04T16:28:54;9.9;53.0
78516;SHT31;67815;51.990;5.688;2023-03-04T16:31:24;9.9;52.9
78516;SHT31;67815;51.990;5.688;2023-03-04T16:33:53;9.9;52.8
78516;SHT31;67815;51.990;5.688;2023-03-04T16:36:25;9.9;53.0
78516;SHT31;67815;51.990;5.688;2023-03-04T16:38:59;9.9;52.2
78516;SHT31;67815;51.990;5.688;2023-03-04T16:41:29;9.9;52.6
78516;SHT31;67815;51.990;5.688;2023-03-04T16:44:00;9.9;52.6
78516;SHT31;67815;51.990;5.688;2023-03-04T16:46:30;9.9;52.2
78516;SHT31;67815;51.990;5.688;2023-03-04T16:48:59;9.9;52.8
78516;SHT31;67815;51.990;5.688;2023-03-04T16:51:39;9.9;52.6
78516;SHT31;67815;51.990;5.688;2023-03-04T16:54:14;9.9;52.8
78516;SHT31;67815;51.990;5.688;2023-03-04T16:56:45;9.8;53.1
78516;SHT31;67815;51.990;5.688;2023-03-04T16:59:16;9.8;52.8